Time;durP1;ratioP1;P1;durP2;ratioP2;P2;SDS_P1;SDS_P2;PMS_P1;PMS_P2;Temp;Humidity;BMP_temperature;BMP_pressure;BME280_temperature;BME280_humidity;BME280_pressure;Samples;Min_cycle;Max_cycle;Signal;HPM_P1;HPM_P2
2023/07/23 00:01:06;;;;;;;18.73;10.20;;;;;;;;;;5074485;28;20028;-75
2023/07/23 00:03:32;;;;;;;18.23;9.55;;;;;;;;;;5074017;28;20024;-74
2023/07/23 00:05:58;;;;;;;15.75;9.68;;;;;;;;;;5074952;28;20031;-74
2023/07/23 00:08:25;;;;;;;24.40;10.70;;;;;;;;;;5074926;28;20036;-74
2023/07/23 00:10:56;;;;;;;19.38;10.27;;;;;;;;;;5075033;28;20029;-74
2023/07/23 00:13:22;;;;;;;21.45;10.43;;;;;;;;;;5074441;28;20044;-74
2023/07/23 00:15:48;;;;;;;16.60;9.50;;;;;;;;;;5074843;28;20520;-74
2023/07/23 00:18:14;;;;;;;20.40;10.18;;;;;;;;;;5074707;28;20044;-74
2023/07/23 00:20:40;;;;;;;18.13;10.88;;;;;;;;;;5074893;28;20032;-73
2023/07/23 00:23:06;;;;;;;18.20;10.10;;;;;;;;;;5074167;28;20074;-73
2023/07/23 00:25:32;;;;;;;19.45;9.90;;;;;;;;;;5075376;28;20028;-75
2023/07/23 00:27:58;;;;;;;20.27;10.13;;;;;;;;;;5078281;28;20040;-75
2023/07/23 00:30:24;;;;;;;25.23;10.82;;;;;;;;;;5078264;28;20020;-75
2023/07/23 00:32:50;;;;;;;20.55;10.82;;;;;;;;;;5078408;28;20115;-75
2023/07/23 00:35:16;;;;;;;18.45;10.20;;;;;;;;;;5078866;28;20031;-75
2023/07/23 00:37:42;;;;;;;18.15;10.45;;;;;;;;;;5077826;28;20070;-75
2023/07/23 00:40:09;;;;;;;19.27;11.23;;;;;;;;;;5074476;28;20035;-75
2023/07/23 00:42:35;;;;;;;21.20;11.32;;;;;;;;;;5074439;28;20024;-74
2023/07/23 00:45:02;;;;;;;18.30;10.40;;;;;;;;;;5074127;28;20398;-74
2023/07/23 00:47:28;;;;;;;18.50;11.85;;;;;;;;;;5074430;28;20028;-74
2023/07/23 00:49:54;;;;;;;20.40;11.93;;;;;;;;;;5074337;28;20016;-74
2023/07/23 00:52:21;;;;;;;20.17;11.77;;;;;;;;;;5073733;28;20044;-74
2023/07/23 00:54:47;;;;;;;20.33;12.18;;;;;;;;;;5074018;28;20028;-74
2023/07/23 00:57:13;;;;;;;21.30;12.00;;;;;;;;;;5073989;28;20039;-74
2023/07/23 00:59:40;;;;;;;20.38;11.95;;;;;;;;;;5073978;28;20056;-73
2023/07/23 01:02:06;;;;;;;24.27;13.18;;;;;;;;;;5073593;28;20486;-74
2023/07/23 01:04:33;;;;;;;25.83;13.35;;;;;;;;;;5073227;28;20162;-74
2023/07/23 01:07:00;;;;;;;23.15;13.60;;;;;;;;;;5074941;28;20047;-75
2023/07/23 01:09:27;;;;;;;22.40;12.52;;;;;;;;;;5075086;28;20021;-75
2023/07/23 01:11:53;;;;;;;27.20;14.80;;;;;;;;;;5073573;28;20055;-74
2023/07/23 01:14:19;;;;;;;24.60;13.10;;;;;;;;;;5076003;28;20078;-75
2023/07/23 01:16:46;;;;;;;21.77;12.80;;;;;;;;;;5076984;28;20032;-74
2023/07/23 01:19:15;;;;;;;21.67;13.18;;;;;;;;;;5076907;28;20032;-74
2023/07/23 01:21:41;;;;;;;24.25;15.23;;;;;;;;;;5073814;28;20490;-74
2023/07/23 01:24:07;;;;;;;24.05;14.43;;;;;;;;;;5073464;28;20541;-73
2023/07/23 01:26:33;;;;;;;23.13;14.85;;;;;;;;;;5073510;28;20377;-73
2023/07/23 01:28:59;;;;;;;25.30;14.45;;;;;;;;;;5073542;28;20024;-74
2023/07/23 01:31:25;;;;;;;28.08;15.30;;;;;;;;;;5071398;28;20500;-74
2023/07/23 01:33:52;;;;;;;21.63;14.65;;;;;;;;;;5072351;28;20094;-75
2023/07/23 01:36:19;;;;;;;25.50;14.77;;;;;;;;;;5073285;28;20048;-74
2023/07/23 01:38:45;;;;;;;24.13;15.38;;;;;;;;;;5075891;28;20039;-74
2023/07/23 01:41:11;;;;;;;23.40;14.60;;;;;;;;;;5075791;28;20088;-74
2023/07/23 01:43:40;;;;;;;26.92;15.07;;;;;;;;;;5075306;28;20028;-73
2023/07/23 01:46:06;;;;;;;25.88;15.43;;;;;;;;;;5076978;28;20025;-73
2023/07/23 01:48:32;;;;;;;28.60;15.38;;;;;;;;;;5072859;28;20039;-73
2023/07/23 01:50:58;;;;;;;24.30;15.40;;;;;;;;;;5073291;28;20131;-73
2023/07/23 01:53:24;;;;;;;27.10;16.38;;;;;;;;;;5072188;28;20033;-73
2023/07/23 01:55:50;;;;;;;25.80;15.48;;;;;;;;;;5073028;28;20115;-74
2023/07/23 01:58:16;;;;;;;28.80;15.52;;;;;;;;;;5072783;28;20028;-75
2023/07/23 02:00:42;;;;;;;24.25;16.40;;;;;;;;;;5072851;28;20033;-74
2023/07/23 02:03:08;;;;;;;27.02;15.95;;;;;;;;;;5071638;28;20059;-74
2023/07/23 02:05:35;;;;;;;24.65;16.02;;;;;;;;;;5072567;28;20500;-74
2023/07/23 02:08:01;;;;;;;25.63;15.50;;;;;;;;;;5072604;28;20452;-75
2023/07/23 02:10:27;;;;;;;25.42;16.00;;;;;;;;;;5072530;28;20360;-75
2023/07/23 02:12:53;;;;;;;30.83;16.10;;;;;;;;;;5071616;28;20042;-75
2023/07/23 02:15:19;;;;;;;28.98;15.55;;;;;;;;;;5073317;28;20028;-75
2023/07/23 02:17:45;;;;;;;25.90;15.88;;;;;;;;;;5073908;28;20063;-75
2023/07/23 02:20:12;;;;;;;30.75;16.02;;;;;;;;;;5075510;28;20514;-74
2023/07/23 02:22:38;;;;;;;25.45;15.05;;;;;;;;;;5072949;28;20237;-74
2023/07/23 02:25:04;;;;;;;28.85;16.40;;;;;;;;;;5072571;28;20040;-74
2023/07/23 02:27:30;;;;;;;25.05;14.98;;;;;;;;;;5072058;28;20020;-73
2023/07/23 02:29:56;;;;;;;25.13;14.73;;;;;;;;;;5072043;28;20031;-73
2023/07/23 02:32:22;;;;;;;26.95;15.90;;;;;;;;;;5071348;28;20130;-73
2023/07/23 02:34:48;;;;;;;27.58;15.45;;;;;;;;;;5072794;28;20462;-74
2023/07/23 02:37:14;;;;;;;26.02;14.90;;;;;;;;;;5072768;28;20036;-73
2023/07/23 02:39:40;;;;;;;23.67;14.48;;;;;;;;;;5072509;28;20059;-73
2023/07/23 02:42:06;;;;;;;26.77;16.00;;;;;;;;;;5071716;28;20575;-74
2023/07/23 02:44:32;;;;;;;27.40;15.90;;;;;;;;;;5072044;28;20032;-74
2023/07/23 02:46:58;;;;;;;24.67;15.63;;;;;;;;;;5071834;28;20457;-74
2023/07/23 02:49:24;;;;;;;27.73;15.50;;;;;;;;;;5071956;28;20052;-74
2023/07/23 02:51:50;;;;;;;28.13;16.38;;;;;;;;;;5071491;28;20384;-74
2023/07/23 02:54:16;;;;;;;23.23;15.40;;;;;;;;;;5071744;28;20024;-73
2023/07/23 02:56:42;;;;;;;25.92;15.82;;;;;;;;;;5071741;28;20056;-73
2023/07/23 02:59:08;;;;;;;29.40;15.68;;;;;;;;;;5071822;28;20067;-75
2023/07/23 03:01:34;;;;;;;33.17;15.57;;;;;;;;;;5070306;28;20371;-74
2023/07/23 03:04:00;;;;;;;29.10;15.05;;;;;;;;;;5071358;28;20575;-74
2023/07/23 03:06:26;;;;;;;28.02;15.30;;;;;;;;;;5073578;28;20060;-74
2023/07/23 03:08:52;;;;;;;27.08;15.40;;;;;;;;;;5072773;28;20593;-74
2023/07/23 03:11:18;;;;;;;31.10;16.77;;;;;;;;;;5071480;28;20105;-73
2023/07/23 03:13:44;;;;;;;31.83;15.68;;;;;;;;;;5071370;28;20035;-73
2023/07/23 03:16:10;;;;;;;31.80;15.57;;;;;;;;;;5073012;28;20044;-74
2023/07/23 03:18:36;;;;;;;32.50;16.60;;;;;;;;;;5073254;28;20035;-74
2023/07/23 03:21:02;;;;;;;28.67;14.95;;;;;;;;;;5073188;28;20036;-74
2023/07/23 03:23:28;;;;;;;30.65;15.45;;;;;;;;;;5073815;28;20067;-74
2023/07/23 03:25:54;;;;;;;29.48;15.27;;;;;;;;;;5073378;28;20033;-74
2023/07/23 03:28:20;;;;;;;25.95;14.82;;;;;;;;;;5077353;28;20024;-73
2023/07/23 03:30:46;;;;;;;27.55;14.52;;;;;;;;;;5079250;28;20108;-75
2023/07/23 03:33:11;;;;;;;25.83;14.55;;;;;;;;;;5077833;28;20303;-75
2023/07/23 03:35:37;;;;;;;27.38;14.07;;;;;;;;;;5080507;28;20024;-74
2023/07/23 03:38:03;;;;;;;29.98;14.27;;;;;;;;;;5078190;28;20030;-73
2023/07/23 03:40:29;;;;;;;24.60;13.43;;;;;;;;;;5076721;28;20029;-74
2023/07/23 03:42:55;;;;;;;28.65;14.00;;;;;;;;;;5079593;28;20108;-73
2023/07/23 03:45:21;;;;;;;27.73;13.98;;;;;;;;;;5079037;28;20047;-76
2023/07/23 03:47:47;;;;;;;26.80;14.35;;;;;;;;;;5077942;28;20448;-76
2023/07/23 03:50:13;;;;;;;29.05;14.02;;;;;;;;;;5078100;28;20077;-73
2023/07/23 03:52:39;;;;;;;21.98;13.25;;;;;;;;;;5077985;28;20073;-75
2023/07/23 03:55:05;;;;;;;34.33;14.05;;;;;;;;;;5077772;28;20020;-77
2023/07/23 03:57:31;;;;;;;23.92;13.07;;;;;;;;;;5077878;28;20041;-74
2023/07/23 03:59:57;;;;;;;28.75;14.55;;;;;;;;;;5078062;28;20036;-75
2023/07/23 04:02:23;;;;;;;29.60;14.95;;;;;;;;;;5078350;28;20025;-73
2023/07/23 04:04:49;;;;;;;23.80;12.63;;;;;;;;;;5078448;28;20027;-73
2023/07/23 04:07:15;;;;;;;25.00;14.00;;;;;;;;;;5078078;28;20025;-74
2023/07/23 04:09:41;;;;;;;25.60;13.13;;;;;;;;;;5078085;28;20036;-74
2023/07/23 04:12:10;;;;;;;27.00;14.13;;;;;;;;;;5079331;28;20039;-74
2023/07/23 04:14:42;;;;;;;21.52;12.88;;;;;;;;;;5082459;28;20421;-75
2023/07/23 04:17:08;;;;;;;24.65;13.35;;;;;;;;;;5078810;28;20017;-74
2023/07/23 04:19:34;;;;;;;25.95;12.82;;;;;;;;;;5080629;28;20052;-75
2023/07/23 04:22:00;;;;;;;27.92;13.00;;;;;;;;;;5079841;28;20020;-73
2023/07/23 04:24:26;;;;;;;23.10;13.13;;;;;;;;;;5078001;28;20386;-73
2023/07/23 04:26:52;;;;;;;20.55;12.10;;;;;;;;;;5078129;28;20021;-75
2023/07/23 04:29:18;;;;;;;26.42;13.32;;;;;;;;;;5078171;28;20013;-74
2023/07/23 04:31:44;;;;;;;23.80;12.23;;;;;;;;;;5077447;28;20363;-73
2023/07/23 04:34:10;;;;;;;20.95;12.80;;;;;;;;;;5078093;28;20073;-75
2023/07/23 04:36:36;;;;;;;24.23;12.85;;;;;;;;;;5079805;28;20410;-75
2023/07/23 04:39:03;;;;;;;24.98;13.35;;;;;;;;;;5077164;28;20043;-77
2023/07/23 04:41:29;;;;;;;27.80;12.93;;;;;;;;;;5091609;28;20012;-76
2023/07/23 04:43:55;;;;;;;21.73;12.32;;;;;;;;;;5072455;28;20040;-77
2023/07/23 04:46:21;;;;;;;24.25;12.75;;;;;;;;;;5073164;28;20031;-76
2023/07/23 04:48:48;;;;;;;26.25;12.70;;;;;;;;;;5078885;28;20089;-76
2023/07/23 04:51:13;;;;;;;26.33;12.57;;;;;;;;;;5074280;28;20117;-77
2023/07/23 04:53:40;;;;;;;22.42;12.85;;;;;;;;;;5077928;28;20086;-76
2023/07/23 04:56:06;;;;;;;21.65;12.07;;;;;;;;;;5076792;28;20034;-76
2023/07/23 04:58:32;;;;;;;25.17;12.25;;;;;;;;;;5076753;28;20032;-76
2023/07/23 05:01:01;;;;;;;25.45;13.50;;;;;;;;;;5080087;28;20041;-77
2023/07/23 05:03:27;;;;;;;24.42;11.93;;;;;;;;;;5079335;28;20029;-76
2023/07/23 05:05:54;;;;;;;30.38;13.20;;;;;;;;;;5097974;28;20020;-75
2023/07/23 05:08:21;;;;;;;25.65;13.50;;;;;;;;;;5098463;28;20013;-76
2023/07/23 05:10:47;;;;;;;26.85;11.45;;;;;;;;;;5097772;28;20039;-75
2023/07/23 05:13:14;;;;;;;25.55;12.23;;;;;;;;;;5086640;28;20029;-74
2023/07/23 05:15:40;;;;;;;20.95;12.50;;;;;;;;;;5080446;28;20454;-73
2023/07/23 05:18:06;;;;;;;19.90;11.70;;;;;;;;;;5080726;28;20027;-74
2023/07/23 05:20:32;;;;;;;19.20;11.25;;;;;;;;;;5082749;28;20024;-74
2023/07/23 05:22:58;;;;;;;23.58;11.90;;;;;;;;;;5086056;28;20446;-74
2023/07/23 05:25:24;;;;;;;24.95;12.35;;;;;;;;;;5076583;28;20082;-74
2023/07/23 05:27:50;;;;;;;26.50;12.25;;;;;;;;;;5073961;28;20166;-75
2023/07/23 05:30:17;;;;;;;19.60;11.65;;;;;;;;;;5074442;28;20016;-72
2023/07/23 05:32:43;;;;;;;19.73;10.95;;;;;;;;;;5071395;28;20042;-73
2023/07/23 05:35:10;;;;;;;25.05;11.15;;;;;;;;;;5072349;28;20497;-72
2023/07/23 05:37:36;;;;;;;24.10;12.43;;;;;;;;;;5071996;28;20031;-73
2023/07/23 05:40:03;;;;;;;24.23;11.68;;;;;;;;;;5073791;28;20036;-73
2023/07/23 05:42:29;;;;;;;28.08;11.63;;;;;;;;;;5071818;28;20028;-73
2023/07/23 05:44:55;;;;;;;26.48;13.13;;;;;;;;;;5072314;28;20020;-73
2023/07/23 05:47:21;;;;;;;19.98;10.60;;;;;;;;;;5072465;28;20443;-73
2023/07/23 05:49:47;;;;;;;21.30;11.57;;;;;;;;;;5080116;28;20024;-72
2023/07/23 05:52:13;;;;;;;22.83;10.60;;;;;;;;;;5072119;28;20056;-72
2023/07/23 05:54:39;;;;;;;20.08;11.25;;;;;;;;;;5073181;28;20022;-73
2023/07/23 05:57:05;;;;;;;21.27;11.52;;;;;;;;;;5074741;28;20111;-73
2023/07/23 05:59:31;;;;;;;18.23;10.52;;;;;;;;;;5072751;28;20497;-74
2023/07/23 06:01:57;;;;;;;17.67;10.65;;;;;;;;;;5072159;28;20029;-76
2023/07/23 06:04:23;;;;;;;18.50;9.80;;;;;;;;;;5071770;28;20168;-73
2023/07/23 06:06:50;;;;;;;22.65;10.55;;;;;;;;;;5075746;28;20020;-72
2023/07/23 06:09:17;;;;;;;17.52;10.30;;;;;;;;;;5071219;28;20017;-74
2023/07/23 06:11:43;;;;;;;16.58;9.27;;;;;;;;;;5070362;28;20025;-72
2023/07/23 06:14:09;;;;;;;18.67;8.85;;;;;;;;;;5071566;28;20029;-73
2023/07/23 06:16:35;;;;;;;18.00;10.57;;;;;;;;;;5079360;28;20043;-73
2023/07/23 06:19:02;;;;;;;17.42;9.52;;;;;;;;;;5072627;28;20036;-73
2023/07/23 06:21:28;;;;;;;19.15;9.43;;;;;;;;;;5073151;28;20033;-74
2023/07/23 06:23:54;;;;;;;17.48;9.25;;;;;;;;;;5073617;28;20042;-83
2023/07/23 06:26:21;;;;;;;17.50;9.10;;;;;;;;;;5073057;28;20024;-72
2023/07/23 06:28:47;;;;;;;16.55;9.40;;;;;;;;;;5072548;28;20028;-73
2023/07/23 06:31:13;;;;;;;18.67;9.15;;;;;;;;;;5072431;28;20420;-72
2023/07/23 06:33:39;;;;;;;19.00;9.35;;;;;;;;;;5072239;28;20028;-72
2023/07/23 06:36:05;;;;;;;20.85;9.98;;;;;;;;;;5072109;28;20029;-73
2023/07/23 06:38:31;;;;;;;15.90;9.05;;;;;;;;;;5072487;28;20596;-72
2023/07/23 06:40:57;;;;;;;15.23;8.48;;;;;;;;;;5072519;28;20032;-73
2023/07/23 06:43:24;;;;;;;16.73;8.45;;;;;;;;;;5072240;28;20029;-73
2023/07/23 06:45:51;;;;;;;12.68;7.68;;;;;;;;;;5072197;28;20100;-74
2023/07/23 06:48:18;;;;;;;17.33;7.85;;;;;;;;;;5072208;28;20468;-72
2023/07/23 06:50:47;;;;;;;27.45;9.13;;;;;;;;;;5072044;28;20392;-73
2023/07/23 06:53:14;;;;;;;15.27;8.77;;;;;;;;;;5070337;28;20039;-72
2023/07/23 06:55:59;;;;;;;16.90;8.02;;;;;;;;;;5071095;28;20032;-72
2023/07/23 06:58:25;;;;;;;15.25;8.55;;;;;;;;;;5070952;28;20401;-72
2023/07/23 07:00:51;;;;;;;17.98;8.57;;;;;;;;;;5070809;28;20032;-73
2023/07/23 07:03:17;;;;;;;16.90;8.98;;;;;;;;;;5069560;28;20067;-74
2023/07/23 07:05:43;;;;;;;16.58;9.15;;;;;;;;;;5071002;28;20040;-73
2023/07/23 07:08:09;;;;;;;17.33;8.90;;;;;;;;;;5070520;28;20474;-73
2023/07/23 07:10:35;;;;;;;18.05;9.23;;;;;;;;;;5070871;28;20048;-74
2023/07/23 07:13:01;;;;;;;16.05;7.97;;;;;;;;;;5070102;28;20078;-74
2023/07/23 07:15:27;;;;;;;19.73;10.63;;;;;;;;;;5070671;28;20020;-72
2023/07/23 07:17:53;;;;;;;18.35;8.75;;;;;;;;;;5070666;28;20405;-72
2023/07/23 07:20:19;;;;;;;22.40;9.50;;;;;;;;;;5070252;28;20021;-72
2023/07/23 07:22:45;;;;;;;16.75;9.27;;;;;;;;;;5069992;28;20032;-72
2023/07/23 07:25:11;;;;;;;16.02;10.02;;;;;;;;;;5070689;28;20027;-73
2023/07/23 07:27:37;;;;;;;17.88;10.05;;;;;;;;;;5070687;28;20028;-72
2023/07/23 07:30:03;;;;;;;14.82;9.20;;;;;;;;;;5070629;28;20028;-73
2023/07/23 07:32:29;;;;;;;20.30;9.30;;;;;;;;;;5069536;28;20426;-73
2023/07/23 07:34:55;;;;;;;15.55;9.38;;;;;;;;;;5070562;28;20025;-73
2023/07/23 07:37:22;;;;;;;17.65;9.88;;;;;;;;;;5070692;28;20067;-73
2023/07/23 07:39:48;;;;;;;18.52;9.00;;;;;;;;;;5070600;28;20024;-73
2023/07/23 07:42:14;;;;;;;18.55;10.93;;;;;;;;;;5069632;28;20055;-73
2023/07/23 07:44:40;;;;;;;16.73;10.68;;;;;;;;;;5070233;28;20023;-72
2023/07/23 07:47:06;;;;;;;16.80;9.30;;;;;;;;;;5070090;28;20090;-73
2023/07/23 07:49:32;;;;;;;20.05;11.13;;;;;;;;;;5070521;28;20029;-75
2023/07/23 07:51:59;;;;;;;18.95;10.25;;;;;;;;;;5067661;28;20021;-74
2023/07/23 07:54:25;;;;;;;20.00;10.38;;;;;;;;;;5071179;28;20036;-73
2023/07/23 07:56:51;;;;;;;21.55;10.25;;;;;;;;;;5071272;28;20125;-73
2023/07/23 07:59:17;;;;;;;16.13;9.98;;;;;;;;;;5071420;28;20021;-75
2023/07/23 08:01:43;;;;;;;17.77;9.90;;;;;;;;;;5070898;28;20032;-73
2023/07/23 08:04:12;;;;;;;18.33;10.43;;;;;;;;;;5071365;28;20028;-73
2023/07/23 08:06:38;;;;;;;19.13;10.60;;;;;;;;;;5070959;28;20028;-72
2023/07/23 08:09:05;;;;;;;19.17;10.70;;;;;;;;;;5070961;28;20484;-74
2023/07/23 08:11:31;;;;;;;20.25;10.82;;;;;;;;;;5070675;28;20029;-73
2023/07/23 08:13:57;;;;;;;18.27;10.02;;;;;;;;;;5069798;28;20023;-74
2023/07/23 08:16:23;;;;;;;18.17;10.15;;;;;;;;;;5074225;28;20543;-73
2023/07/23 08:18:50;;;;;;;18.10;10.18;;;;;;;;;;5073566;28;20032;-74
2023/07/23 08:21:17;;;;;;;18.75;9.85;;;;;;;;;;5074431;28;20028;-73
2023/07/23 08:23:43;;;;;;;20.38;10.50;;;;;;;;;;5073934;28;20024;-76
2023/07/23 08:26:12;;;;;;;19.20;10.10;;;;;;;;;;5073871;28;20462;-75
2023/07/23 08:28:39;;;;;;;22.73;9.95;;;;;;;;;;5071662;28;20029;-74
2023/07/23 08:31:05;;;;;;;19.70;9.57;;;;;;;;;;5073825;28;20056;-73
2023/07/23 08:33:32;;;;;;;17.15;9.70;;;;;;;;;;5072578;28;20436;-74
2023/07/23 08:35:59;;;;;;;15.13;8.80;;;;;;;;;;5074019;28;20032;-74
2023/07/23 08:38:25;;;;;;;18.92;10.68;;;;;;;;;;5073904;28;20028;-74
2023/07/23 08:41:00;;;;;;;16.88;8.77;;;;;;;;;;5073507;28;20033;-75
2023/07/23 08:43:32;;;;;;;20.55;10.07;;;;;;;;;;5072144;28;20028;-73
2023/07/23 08:46:16;;;;;;;17.55;9.30;;;;;;;;;;5074211;28;20583;-75
2023/07/23 08:48:42;;;;;;;17.98;10.38;;;;;;;;;;5073456;28;20096;-73
2023/07/23 08:51:09;;;;;;;20.33;10.30;;;;;;;;;;5073587;28;20104;-74
2023/07/23 08:53:35;;;;;;;20.23;9.95;;;;;;;;;;5071710;28;20688;-74
2023/07/23 08:56:01;;;;;;;20.98;9.60;;;;;;;;;;5073296;28;20103;-75
2023/07/23 08:58:27;;;;;;;16.23;9.52;;;;;;;;;;5073911;28;20643;-74
2023/07/23 09:00:53;;;;;;;14.63;9.00;;;;;;;;;;5073300;28;20067;-75
2023/07/23 09:03:21;;;;;;;17.75;10.38;;;;;;;;;;5073383;28;20032;-78
2023/07/23 09:05:47;;;;;;;18.50;8.95;;;;;;;;;;5074752;28;20017;-78
2023/07/23 09:08:13;;;;;;;17.27;9.75;;;;;;;;;;5074383;28;20089;-74
2023/07/23 09:10:40;;;;;;;18.35;9.63;;;;;;;;;;5074187;28;20021;-75
2023/07/23 09:13:16;;;;;;;18.60;9.48;;;;;;;;;;5074442;28;20378;-74
2023/07/23 09:15:52;;;;;;;17.20;9.20;;;;;;;;;;5072977;28;20430;-75
2023/07/23 09:18:18;;;;;;;;;;;;;;;;;;5074740;28;20017;-75
2023/07/23 09:20:48;;;;;;;40.45;10.40;;;;;;;;;;5073990;28;19908;-77
2023/07/23 09:23:14;;;;;;;14.38;9.57;;;;;;;;;;5076051;28;20070;-77
2023/07/23 09:25:44;;;;;;;17.42;9.45;;;;;;;;;;5072411;28;20020;-73
2023/07/23 09:28:21;;;;;;;20.35;9.25;;;;;;;;;;5073166;28;20098;-75
2023/07/23 09:30:47;;;;;;;20.55;9.57;;;;;;;;;;5073832;28;20025;-77
2023/07/23 09:33:13;;;;;;;18.77;9.98;;;;;;;;;;5071012;28;20524;-77
2023/07/23 09:35:39;;;;;;;17.65;10.80;;;;;;;;;;5073105;28;20497;-75
2023/07/23 09:38:05;;;;;;;19.00;10.82;;;;;;;;;;5071811;28;20025;-75
2023/07/23 09:40:35;;;;;;;17.60;9.82;;;;;;;;;;5072374;28;20405;-74
2023/07/23 09:43:01;;;;;;;20.23;11.07;;;;;;;;;;5070279;28;20035;-75
2023/07/23 09:45:29;;;;;;;18.15;9.95;;;;;;;;;;5072234;28;20024;-75
2023/07/23 09:47:55;;;;;;;18.17;9.35;;;;;;;;;;5072636;28;20031;-74
2023/07/23 09:50:21;;;;;;;20.75;11.15;;;;;;;;;;5072579;28;20024;-74
2023/07/23 09:52:50;;;;;;;17.75;9.77;;;;;;;;;;5071764;28;20048;-75
2023/07/23 09:55:17;;;;;;;17.58;10.23;;;;;;;;;;5072111;28;20036;-75
2023/07/23 09:57:45;;;;;;;23.73;11.25;;;;;;;;;;5071491;28;20024;-74
2023/07/23 10:00:11;;;;;;;24.42;11.02;;;;;;;;;;5072043;28;20498;-73
2023/07/23 10:02:38;;;;;;;17.95;10.73;;;;;;;;;;5071255;28;20475;-77
2023/07/23 10:05:05;;;;;;;20.70;12.45;;;;;;;;;;5071886;28;20431;-76
2023/07/23 10:07:32;;;;;;;21.02;11.02;;;;;;;;;;5071611;28;20039;-74
2023/07/23 10:10:00;;;;;;;21.98;11.25;;;;;;;;;;5071646;28;20021;-75
2023/07/23 10:12:26;;;;;;;21.70;11.00;;;;;;;;;;5070679;28;20111;-77
2023/07/23 10:14:52;;;;;;;18.80;10.68;;;;;;;;;;5071562;28;20119;-75
2023/07/23 10:17:18;;;;;;;21.73;10.93;;;;;;;;;;5071535;28;20027;-75
2023/07/23 10:19:45;;;;;;;20.27;12.52;;;;;;;;;;5071817;28;20107;-75
2023/07/23 10:22:11;;;;;;;23.38;11.75;;;;;;;;;;5071166;28;20028;-75
2023/07/23 10:24:41;;;;;;;19.38;11.77;;;;;;;;;;5071576;28;20039;-75
2023/07/23 10:27:10;;;;;;;24.25;12.32;;;;;;;;;;5071965;28;20029;-73
2023/07/23 10:29:36;;;;;;;18.88;11.07;;;;;;;;;;5071497;28;20048;-75
2023/07/23 10:32:29;;;;;;;20.20;11.23;;;;;;;;;;5070646;28;20060;-74
2023/07/23 10:34:55;;;;;;;20.45;11.95;;;;;;;;;;5070921;28;20101;-73
2023/07/23 10:37:24;;;;;;;22.50;12.77;;;;;;;;;;5070385;28;20027;-74
2023/07/23 10:39:51;;;;;;;20.98;12.05;;;;;;;;;;5071118;28;20024;-75
2023/07/23 10:42:33;;;;;;;18.63;11.38;;;;;;;;;;5064217;28;20028;-75
2023/07/23 10:45:23;;;;;;;23.38;11.07;;;;;;;;;;5060871;28;20024;-75
2023/07/23 10:47:54;;;;;;;24.65;10.45;;;;;;;;;;5062496;28;20095;-74
2023/07/23 10:50:21;;;;;;;19.85;10.40;;;;;;;;;;5059717;28;20028;-75
2023/07/23 10:52:49;;;;;;;21.65;10.77;;;;;;;;;;5061558;28;20040;-75
2023/07/23 10:55:36;;;;;;;22.50;11.07;;;;;;;;;;5064581;28;20051;-75
2023/07/23 10:58:13;;;;;;;20.33;11.13;;;;;;;;;;5059579;28;20021;-74
2023/07/23 11:00:43;;;;;;;25.77;10.88;;;;;;;;;;5062530;28;20033;-74
2023/07/23 11:03:11;;;;;;;20.33;11.23;;;;;;;;;;5058789;28;20017;-74
2023/07/23 11:05:42;;;;;;;23.20;13.65;;;;;;;;;;5060748;28;20091;-73
2023/07/23 11:08:26;;;;;;;18.85;11.27;;;;;;;;;;5060467;28;20136;-73
2023/07/23 11:10:59;;;;;;;20.47;11.50;;;;;;;;;;5060016;28;20024;-74
2023/07/23 11:13:31;;;;;;;18.10;11.27;;;;;;;;;;5059919;28;20271;-76
2023/07/23 11:15:57;;;;;;;22.20;11.82;;;;;;;;;;5062991;28;20090;-75
2023/07/23 11:18:23;;;;;;;21.63;11.65;;;;;;;;;;5061660;28;20021;-76
2023/07/23 11:20:51;;;;;;;16.48;11.10;;;;;;;;;;5066564;28;20043;-75
2023/07/23 11:23:17;;;;;;;23.65;12.07;;;;;;;;;;5063200;28;20025;-75
2023/07/23 11:25:44;;;;;;;22.25;11.98;;;;;;;;;;5064631;28;20020;-74
2023/07/23 11:28:10;;;;;;;23.58;12.00;;;;;;;;;;5066067;28;20016;-73
2023/07/23 11:30:37;;;;;;;26.85;11.70;;;;;;;;;;5069372;28;20020;-74
2023/07/23 11:33:03;;;;;;;28.42;12.63;;;;;;;;;;5065062;28;20100;-74
2023/07/23 11:35:30;;;;;;;20.48;11.98;;;;;;;;;;5065488;28;20024;-74
2023/07/23 11:38:00;;;;;;;23.67;13.20;;;;;;;;;;5067686;28;20103;-74
2023/07/23 11:40:26;;;;;;;19.70;12.63;;;;;;;;;;5069701;28;20166;-74
2023/07/23 11:42:53;;;;;;;23.80;12.70;;;;;;;;;;5064287;28;20111;-75
2023/07/23 11:45:20;;;;;;;22.77;13.48;;;;;;;;;;5070735;28;20048;-74
2023/07/23 11:47:49;;;;;;;27.92;13.00;;;;;;;;;;5069736;28;20024;-74
2023/07/23 11:50:19;;;;;;;25.95;13.50;;;;;;;;;;5074448;28;20391;-75
2023/07/23 11:52:49;;;;;;;22.50;12.25;;;;;;;;;;5073633;28;20149;-74
2023/07/23 11:55:20;;;;;;;23.00;12.10;;;;;;;;;;5074919;28;20035;-74
2023/07/23 11:57:46;;;;;;;17.83;9.73;;;;;;;;;;5075154;28;20024;-74
2023/07/23 12:00:12;;;;;;;20.92;9.52;;;;;;;;;;5074866;28;20117;-75
2023/07/23 12:02:38;;;;;;;15.57;9.02;;;;;;;;;;5073821;28;20108;-76
2023/07/23 12:05:06;;;;;;;14.02;8.68;;;;;;;;;;5073559;28;20461;-74
2023/07/23 12:07:32;;;;;;;13.00;8.07;;;;;;;;;;5074159;28;20075;-74
2023/07/23 12:09:59;;;;;;;13.65;7.75;;;;;;;;;;5074300;28;20029;-75
2023/07/23 12:12:26;;;;;;;12.40;8.40;;;;;;;;;;5073523;28;20031;-73
2023/07/23 12:15:04;;;;;;;16.73;8.23;;;;;;;;;;5074589;28;20034;-74
2023/07/23 12:17:30;;;;;;;14.40;8.77;;;;;;;;;;5074526;28;20078;-75
2023/07/23 12:19:56;;;;;;;15.27;8.85;;;;;;;;;;5075939;28;20093;-75
2023/07/23 12:22:24;;;;;;;14.23;9.10;;;;;;;;;;5074107;28;20028;-76
2023/07/23 12:24:50;;;;;;;18.20;9.18;;;;;;;;;;5074510;28;20394;-74
2023/07/23 12:27:16;;;;;;;15.85;9.13;;;;;;;;;;5074534;28;20486;-74
2023/07/23 12:29:42;;;;;;;17.15;9.98;;;;;;;;;;5074695;28;20078;-75
2023/07/23 12:32:11;;;;;;;21.13;11.68;;;;;;;;;;5074207;28;20036;-76
2023/07/23 12:34:42;;;;;;;13.70;9.27;;;;;;;;;;5075139;28;20033;-74
2023/07/23 12:37:08;;;;;;;15.98;10.57;;;;;;;;;;5074249;28;20032;-75
2023/07/23 12:39:34;;;;;;;20.95;10.00;;;;;;;;;;5074381;28;20024;-76
2023/07/23 12:42:00;;;;;;;17.88;10.00;;;;;;;;;;5073639;28;20509;-75
2023/07/23 12:44:26;;;;;;;17.38;9.85;;;;;;;;;;5074035;28;20025;-74
2023/07/23 12:46:53;;;;;;;20.52;10.60;;;;;;;;;;5074183;28;20020;-75
2023/07/23 12:49:19;;;;;;;22.08;11.10;;;;;;;;;;5074208;28;20351;-74
2023/07/23 12:51:45;;;;;;;16.65;9.88;;;;;;;;;;5073452;28;20081;-74
2023/07/23 12:54:11;;;;;;;22.42;10.50;;;;;;;;;;5073955;28;20406;-74
2023/07/23 12:56:37;;;;;;;19.75;10.73;;;;;;;;;;5074705;28;20029;-76
2023/07/23 12:59:03;;;;;;;22.20;11.02;;;;;;;;;;5073760;28;20029;-76
2023/07/23 13:01:29;;;;;;;23.40;11.27;;;;;;;;;;5073112;28;20028;-75
2023/07/23 13:03:55;;;;;;;15.68;10.30;;;;;;;;;;5073867;28;20035;-75
2023/07/23 13:06:21;;;;;;;21.00;10.45;;;;;;;;;;5073867;28;20056;-74
2023/07/23 13:08:47;;;;;;;21.30;11.18;;;;;;;;;;5072774;28;20086;-76
2023/07/23 13:11:13;;;;;;;19.52;10.63;;;;;;;;;;5073405;28;20025;-74
2023/07/23 13:13:39;;;;;;;19.38;11.45;;;;;;;;;;5073598;28;20025;-74
2023/07/23 13:16:05;;;;;;;17.02;10.40;;;;;;;;;;5074352;28;20021;-77
2023/07/23 13:18:31;;;;;;;21.60;10.40;;;;;;;;;;5076312;28;20109;-76
2023/07/23 13:20:58;;;;;;;16.27;10.55;;;;;;;;;;5075319;28;20037;-77
2023/07/23 13:23:24;;;;;;;15.55;10.43;;;;;;;;;;5074552;28;20031;-78
2023/07/23 13:25:52;;;;;;;22.35;10.95;;;;;;;;;;5075863;28;20378;-77
2023/07/23 13:28:18;;;;;;;25.98;10.93;;;;;;;;;;5074951;28;20042;-79
2023/07/23 13:30:44;;;;;;;15.48;10.20;;;;;;;;;;5078447;28;20486;-76
2023/07/23 13:33:10;;;;;;;21.63;11.35;;;;;;;;;;5073993;28;20103;-76
2023/07/23 13:35:36;;;;;;;19.98;10.95;;;;;;;;;;5076492;28;20029;-77
2023/07/23 13:38:02;;;;;;;18.20;10.25;;;;;;;;;;5080600;28;20073;-77
2023/07/23 13:40:28;;;;;;;18.52;11.00;;;;;;;;;;5077834;28;20024;-78
2023/07/23 13:42:54;;;;;;;17.20;10.38;;;;;;;;;;5076025;28;20035;-77
2023/07/23 13:45:20;;;;;;;17.50;10.35;;;;;;;;;;5076189;28;20013;-78
2023/07/23 13:47:46;;;;;;;16.73;10.35;;;;;;;;;;5080552;28;20029;-78
2023/07/23 13:50:12;;;;;;;19.92;10.63;;;;;;;;;;5076906;28;20026;-76
2023/07/23 13:52:38;;;;;;;20.95;10.65;;;;;;;;;;5077635;28;20407;-76
2023/07/23 13:55:04;;;;;;;19.30;11.32;;;;;;;;;;5074929;28;20078;-79
2023/07/23 13:57:30;;;;;;;20.13;11.23;;;;;;;;;;5074743;28;20095;-78
2023/07/23 13:59:57;;;;;;;18.83;9.70;;;;;;;;;;5074039;28;20522;-76
2023/07/23 14:02:23;;;;;;;17.15;10.38;;;;;;;;;;5074109;28;20028;-77
2023/07/23 14:04:49;;;;;;;20.08;9.70;;;;;;;;;;5074619;28;20028;-78
2023/07/23 14:07:16;;;;;;;17.98;9.45;;;;;;;;;;5074086;28;20016;-77
2023/07/23 14:09:42;;;;;;;15.65;8.98;;;;;;;;;;5074661;28;20017;-78
2023/07/23 14:12:08;;;;;;;24.15;10.45;;;;;;;;;;5073316;28;20435;-76
2023/07/23 14:14:34;;;;;;;17.30;9.85;;;;;;;;;;5074704;28;20478;-77
2023/07/23 14:17:00;;;;;;;20.45;10.27;;;;;;;;;;5072940;28;20032;-79
2023/07/23 14:19:26;;;;;;;17.80;10.85;;;;;;;;;;5074055;28;20475;-79